sensor_id;sensor_type;location;lat;lon;timestamp;pressure;altitude;pressure_sealevel;temperature;humidity
29359;BME280;16347;53.232;6.556;2023-01-29T00:02:22;102862.88;;;7.17;64.83
29359;BME280;16347;53.232;6.556;2023-01-29T00:04:52;102867.50;;;7.00;65.25
29359;BME280;16347;53.232;6.556;2023-01-29T00:07:26;102866.97;;;6.93;65.38
29359;BME280;16347;53.232;6.556;2023-01-29T00:09:55;102865.84;;;6.97;65.59
29359;BME280;16347;53.232;6.556;2023-01-29T00:12:23;102864.78;;;7.15;65.34
29359;BME280;16347;53.232;6.556;2023-01-29T00:14:52;102856.94;;;7.27;64.46
29359;BME280;16347;53.232;6.556;2023-01-29T00:17:20;102860.44;;;7.13;64.82
29359;BME280;16347;53.232;6.556;2023-01-29T00:19:49;102862.59;;;7.22;64.98
29359;BME280;16347;53.232;6.556;2023-01-29T00:22:17;102867.50;;;7.31;65.01
29359;BME280;16347;53.232;6.556;2023-01-29T00:24:46;102857.88;;;7.26;64.69
29359;BME280;16347;53.232;6.556;2023-01-29T00:27:14;102864.19;;;7.10;65.28
29359;BME280;16347;53.232;6.556;2023-01-29T00:29:42;102865.31;;;7.22;64.98
29359;BME280;16347;53.232;6.556;2023-01-29T00:32:28;102849.44;;;7.32;65.05
29359;BME280;16347;53.232;6.556;2023-01-29T00:34:57;102843.66;;;7.38;64.67
29359;BME280;16347;53.232;6.556;2023-01-29T00:37:25;102837.41;;;7.21;64.88
29359;BME280;16347;53.232;6.556;2023-01-29T00:39:55;102839.06;;;7.24;64.75
29359;BME280;16347;53.232;6.556;2023-01-29T00:42:26;102837.56;;;7.18;64.86
29359;BME280;16347;53.232;6.556;2023-01-29T00:45:11;102832.25;;;7.17;65.15
29359;BME280;16347;53.232;6.556;2023-01-29T00:47:39;102832.84;;;7.06;65.32
29359;BME280;16347;53.232;6.556;2023-01-29T00:50:09;102826.69;;;7.04;65.78
29359;BME280;16347;53.232;6.556;2023-01-29T00:52:38;102826.31;;;7.10;65.54
29359;BME280;16347;53.232;6.556;2023-01-29T00:55:10;102814.38;;;7.14;65.66
29359;BME280;16347;53.232;6.556;2023-01-29T00:57:39;102813.84;;;7.08;65.80
29359;BME280;16347;53.232;6.556;2023-01-29T01:00:09;102807.47;;;6.93;65.96
29359;BME280;16347;53.232;6.556;2023-01-29T01:02:38;102819.41;;;6.89;66.39
29359;BME280;16347;53.232;6.556;2023-01-29T01:05:25;102812.44;;;6.85;66.83
29359;BME280;16347;53.232;6.556;2023-01-29T01:07:55;102810.44;;;6.73;66.97
29359;BME280;16347;53.232;6.556;2023-01-29T01:10:28;102809.22;;;6.94;66.68
29359;BME280;16347;53.232;6.556;2023-01-29T01:12:57;102805.72;;;6.92;66.68
29359;BME280;16347;53.232;6.556;2023-01-29T01:15:28;102812.28;;;6.88;66.36
29359;BME280;16347;53.232;6.556;2023-01-29T01:17:58;102818.03;;;6.82;66.75
29359;BME280;16347;53.232;6.556;2023-01-29T01:20:28;102822.66;;;6.80;67.11
29359;BME280;16347;53.232;6.556;2023-01-29T01:22:57;102823.44;;;6.82;66.60
29359;BME280;16347;53.232;6.556;2023-01-29T01:25:27;102827.00;;;6.83;67.17
29359;BME280;16347;53.232;6.556;2023-01-29T01:27:56;102819.25;;;6.92;66.95
29359;BME280;16347;53.232;6.556;2023-01-29T01:30:25;102821.00;;;6.93;66.84
29359;BME280;16347;53.232;6.556;2023-01-29T01:32:54;102819.25;;;7.08;66.86
29359;BME280;16347;53.232;6.556;2023-01-29T01:35:22;102823.09;;;6.88;66.87
29359;BME280;16347;53.232;6.556;2023-01-29T01:37:50;102826.41;;;6.93;66.85
29359;BME280;16347;53.232;6.556;2023-01-29T01:40:19;102817.00;;;7.00;66.30
29359;BME280;16347;53.232;6.556;2023-01-29T01:42:51;102824.59;;;6.94;66.72
29359;BME280;16347;53.232;6.556;2023-01-29T01:45:23;102825.72;;;6.90;66.93
29359;BME280;16347;53.232;6.556;2023-01-29T01:47:55;102826.75;;;7.03;66.72
29359;BME280;16347;53.232;6.556;2023-01-29T01:50:29;102827.38;;;7.08;66.88
29359;BME280;16347;53.232;6.556;2023-01-29T01:53:02;102833.47;;;7.11;66.00
29359;BME280;16347;53.232;6.556;2023-01-29T01:55:33;102830.06;;;7.23;65.95
29359;BME280;16347;53.232;6.556;2023-01-29T01:58:08;102823.34;;;7.15;66.56
29359;BME280;16347;53.232;6.556;2023-01-29T02:00:38;102827.59;;;7.19;66.05
29359;BME280;16347;53.232;6.556;2023-01-29T02:03:07;102825.00;;;7.17;66.28
29359;BME280;16347;53.232;6.556;2023-01-29T02:05:56;102821.75;;;7.27;66.06
29359;BME280;16347;53.232;6.556;2023-01-29T02:08:48;102825.41;;;7.26;66.19
29359;BME280;16347;53.232;6.556;2023-01-29T02:11:35;102830.75;;;7.27;65.95
29359;BME280;16347;53.232;6.556;2023-01-29T02:14:05;102829.44;;;7.18;66.42
29359;BME280;16347;53.232;6.556;2023-01-29T02:16:34;102831.81;;;7.09;66.79
29359;BME280;16347;53.232;6.556;2023-01-29T02:19:04;102833.47;;;7.11;67.22
29359;BME280;16347;53.232;6.556;2023-01-29T02:21:51;102822.31;;;7.17;67.49
29359;BME280;16347;53.232;6.556;2023-01-29T02:24:53;102818.28;;;7.25;67.52
29359;BME280;16347;53.232;6.556;2023-01-29T02:28:04;102824.13;;;7.17;67.50
29359;BME280;16347;53.232;6.556;2023-01-29T02:30:36;102816.56;;;7.08;67.72
29359;BME280;16347;53.232;6.556;2023-01-29T02:33:10;102810.75;;;7.30;67.90
29359;BME280;16347;53.232;6.556;2023-01-29T02:35:43;102801.00;;;7.27;67.85
29359;BME280;16347;53.232;6.556;2023-01-29T02:38:20;102802.41;;;7.03;68.74
29359;BME280;16347;53.232;6.556;2023-01-29T02:40:56;102797.50;;;7.09;68.98
29359;BME280;16347;53.232;6.556;2023-01-29T02:43:29;102801.72;;;7.15;68.90
29359;BME280;16347;53.232;6.556;2023-01-29T02:46:07;102788.63;;;7.07;68.88
29359;BME280;16347;53.232;6.556;2023-01-29T02:48:40;102793.84;;;7.10;68.66
29359;BME280;16347;53.232;6.556;2023-01-29T02:51:13;102777.50;;;7.28;68.69
29359;BME280;16347;53.232;6.556;2023-01-29T02:53:50;102763.91;;;7.13;68.84
29359;BME280;16347;53.232;6.556;2023-01-29T02:56:23;102758.44;;;6.99;69.46
29359;BME280;16347;53.232;6.556;2023-01-29T02:58:59;102749.38;;;6.69;70.06
29359;BME280;16347;53.232;6.556;2023-01-29T03:01:32;102743.00;;;6.86;70.38
29359;BME280;16347;53.232;6.556;2023-01-29T03:04:06;102742.44;;;6.81;70.79
29359;BME280;16347;53.232;6.556;2023-01-29T03:06:40;102727.34;;;6.61;71.49
29359;BME280;16347;53.232;6.556;2023-01-29T03:09:12;102724.38;;;6.65;71.27
29359;BME280;16347;53.232;6.556;2023-01-29T03:11:48;102718.34;;;6.76;71.20
29359;BME280;16347;53.232;6.556;2023-01-29T03:14:27;102713.47;;;6.67;71.25
29359;BME280;16347;53.232;6.556;2023-01-29T03:17:20;102722.38;;;6.53;71.91
29359;BME280;16347;53.232;6.556;2023-01-29T03:19:51;102721.41;;;6.70;71.81
29359;BME280;16347;53.232;6.556;2023-01-29T03:22:21;102713.63;;;6.48;72.13
29359;BME280;16347;53.232;6.556;2023-01-29T03:24:54;102713.13;;;6.57;72.14
29359;BME280;16347;53.232;6.556;2023-01-29T03:27:46;102711.53;;;6.69;71.67
29359;BME280;16347;53.232;6.556;2023-01-29T03:30:44;102712.84;;;6.62;72.23
29359;BME280;16347;53.232;6.556;2023-01-29T03:33:45;102699.94;;;6.51;72.39
29359;BME280;16347;53.232;6.556;2023-01-29T03:36:19;102700.66;;;6.39;72.98
29359;BME280;16347;53.232;6.556;2023-01-29T03:38:49;102699.00;;;6.37;73.36
29359;BME280;16347;53.232;6.556;2023-01-29T03:41:23;102706.50;;;6.47;73.75
29359;BME280;16347;53.232;6.556;2023-01-29T03:43:58;102705.28;;;6.53;73.95
29359;BME280;16347;53.232;6.556;2023-01-29T03:46:37;102705.72;;;6.61;73.72
29359;BME280;16347;53.232;6.556;2023-01-29T03:49:16;102706.50;;;6.32;74.00
29359;BME280;16347;53.232;6.556;2023-01-29T03:51:52;102707.19;;;6.35;74.48
29359;BME280;16347;53.232;6.556;2023-01-29T03:54:27;102711.97;;;6.61;74.03
29359;BME280;16347;53.232;6.556;2023-01-29T03:57:03;102714.84;;;6.58;73.30
29359;BME280;16347;53.232;6.556;2023-01-29T03:59:48;102708.59;;;6.58;73.92
29359;BME280;16347;53.232;6.556;2023-01-29T04:02:47;102712.78;;;6.48;73.94
29359;BME280;16347;53.232;6.556;2023-01-29T04:05:20;102719.22;;;6.30;74.27
29359;BME280;16347;53.232;6.556;2023-01-29T04:08:08;102717.03;;;6.52;74.06
29359;BME280;16347;53.232;6.556;2023-01-29T04:10:40;102722.91;;;6.60;73.89
29359;BME280;16347;53.232;6.556;2023-01-29T04:13:11;102712.28;;;6.41;73.90
29359;BME280;16347;53.232;6.556;2023-01-29T04:15:46;102712.00;;;6.46;73.58
29359;BME280;16347;53.232;6.556;2023-01-29T04:18:24;102715.56;;;6.62;73.23
29359;BME280;16347;53.232;6.556;2023-01-29T04:21:02;102715.38;;;6.65;72.50
29359;BME280;16347;53.232;6.556;2023-01-29T04:23:33;102717.56;;;6.58;72.78
29359;BME280;16347;53.232;6.556;2023-01-29T04:26:18;102710.16;;;6.62;72.61
29359;BME280;16347;53.232;6.556;2023-01-29T04:29:00;102700.91;;;6.66;72.42
29359;BME280;16347;53.232;6.556;2023-01-29T04:31:34;102702.47;;;6.70;72.06
29359;BME280;16347;53.232;6.556;2023-01-29T04:34:14;102708.59;;;6.74;72.04
29359;BME280;16347;53.232;6.556;2023-01-29T04:36:55;102705.97;;;6.72;71.83
29359;BME280;16347;53.232;6.556;2023-01-29T04:39:31;102723.16;;;6.71;71.79
29359;BME280;16347;53.232;6.556;2023-01-29T04:42:05;102723.84;;;6.75;71.92
29359;BME280;16347;53.232;6.556;2023-01-29T04:44:40;102728.34;;;6.90;71.29
29359;BME280;16347;53.232;6.556;2023-01-29T04:47:17;102733.59;;;6.93;71.54
29359;BME280;16347;53.232;6.556;2023-01-29T04:49:55;102724.41;;;6.95;71.38
29359;BME280;16347;53.232;6.556;2023-01-29T04:52:32;102722.59;;;6.96;71.46
29359;BME280;16347;53.232;6.556;2023-01-29T04:55:07;102719.19;;;6.92;71.25
29359;BME280;16347;53.232;6.556;2023-01-29T04:57:43;102719.63;;;7.00;71.18
29359;BME280;16347;53.232;6.556;2023-01-29T05:00:17;102703.16;;;6.89;71.48
29359;BME280;16347;53.232;6.556;2023-01-29T05:02:47;102687.28;;;6.83;71.16
29359;BME280;16347;53.232;6.556;2023-01-29T05:05:19;102682.31;;;6.76;71.85
29359;BME280;16347;53.232;6.556;2023-01-29T05:07:48;102681.97;;;6.82;71.70
29359;BME280;16347;53.232;6.556;2023-01-29T05:10:18;102676.91;;;6.76;71.81
29359;BME280;16347;53.232;6.556;2023-01-29T05:12:50;102662.28;;;6.48;72.43
29359;BME280;16347;53.232;6.556;2023-01-29T05:15:23;102650.00;;;6.58;72.56
29359;BME280;16347;53.232;6.556;2023-01-29T05:17:52;102656.19;;;6.60;72.46
29359;BME280;16347;53.232;6.556;2023-01-29T05:20:32;102664.09;;;6.79;71.87
29359;BME280;16347;53.232;6.556;2023-01-29T05:23:01;102677.13;;;6.57;72.21
29359;BME280;16347;53.232;6.556;2023-01-29T05:25:31;102662.94;;;6.38;72.51
29359;BME280;16347;53.232;6.556;2023-01-29T05:28:00;102652.47;;;6.32;72.93
29359;BME280;16347;53.232;6.556;2023-01-29T05:30:31;102652.97;;;6.38;72.92
29359;BME280;16347;53.232;6.556;2023-01-29T05:33:00;102644.72;;;6.41;72.68
29359;BME280;16347;53.232;6.556;2023-01-29T05:35:30;102646.72;;;6.38;73.20
29359;BME280;16347;53.232;6.556;2023-01-29T05:37:59;102650.63;;;6.32;73.28
29359;BME280;16347;53.232;6.556;2023-01-29T05:40:27;102640.59;;;6.50;72.88
29359;BME280;16347;53.232;6.556;2023-01-29T05:42:55;102636.16;;;6.49;72.94
29359;BME280;16347;53.232;6.556;2023-01-29T05:45:23;102633.97;;;6.55;72.75
29359;BME280;16347;53.232;6.556;2023-01-29T05:47:54;102625.97;;;6.54;72.46
29359;BME280;16347;53.232;6.556;2023-01-29T05:50:23;102616.03;;;6.54;72.51
29359;BME280;16347;53.232;6.556;2023-01-29T05:52:56;102607.63;;;6.59;72.70
29359;BME280;16347;53.232;6.556;2023-01-29T05:55:24;102608.81;;;6.85;72.49
29359;BME280;16347;53.232;6.556;2023-01-29T05:57:52;102608.66;;;6.72;71.84
29359;BME280;16347;53.232;6.556;2023-01-29T06:00:21;102589.66;;;6.74;71.94
29359;BME280;16347;53.232;6.556;2023-01-29T06:02:49;102602.47;;;6.70;71.96
29359;BME280;16347;53.232;6.556;2023-01-29T06:05:17;102605.88;;;6.74;72.04
29359;BME280;16347;53.232;6.556;2023-01-29T06:07:45;102605.41;;;6.81;71.54
29359;BME280;16347;53.232;6.556;2023-01-29T06:10:17;102599.53;;;6.59;72.01
29359;BME280;16347;53.232;6.556;2023-01-29T06:12:45;102594.53;;;6.67;72.13
29359;BME280;16347;53.232;6.556;2023-01-29T06:15:13;102607.50;;;6.76;71.54
29359;BME280;16347;53.232;6.556;2023-01-29T06:17:42;102601.53;;;6.55;71.79
29359;BME280;16347;53.232;6.556;2023-01-29T06:20:11;102609.31;;;6.46;72.17
29359;BME280;16347;53.232;6.556;2023-01-29T06:22:39;102607.16;;;6.37;72.25
29359;BME280;16347;53.232;6.556;2023-01-29T06:25:08;102602.81;;;6.18;72.77
29359;BME280;16347;53.232;6.556;2023-01-29T06:27:38;102603.50;;;6.22;73.00
29359;BME280;16347;53.232;6.556;2023-01-29T06:30:07;102585.03;;;6.30;73.08
29359;BME280;16347;53.232;6.556;2023-01-29T06:32:35;102575.56;;;6.07;73.38
29359;BME280;16347;53.232;6.556;2023-01-29T06:35:04;102576.06;;;5.98;74.23
29359;BME280;16347;53.232;6.556;2023-01-29T06:37:33;102575.81;;;5.87;74.38
29359;BME280;16347;53.232;6.556;2023-01-29T06:40:01;102591.31;;;5.99;74.11
29359;BME280;16347;53.232;6.556;2023-01-29T06:42:30;102599.16;;;6.19;73.39
29359;BME280;16347;53.232;6.556;2023-01-29T06:44:59;102605.94;;;6.27;73.10
29359;BME280;16347;53.232;6.556;2023-01-29T06:47:28;102602.22;;;6.13;72.94
29359;BME280;16347;53.232;6.556;2023-01-29T06:49:56;102597.59;;;6.00;73.25
29359;BME280;16347;53.232;6.556;2023-01-29T06:52:24;102605.06;;;5.95;73.90
29359;BME280;16347;53.232;6.556;2023-01-29T06:54:55;102602.56;;;6.07;74.05
29359;BME280;16347;53.232;6.556;2023-01-29T06:57:23;102603.84;;;6.32;73.27
29359;BME280;16347;53.232;6.556;2023-01-29T06:59:51;102591.81;;;6.22;72.98
29359;BME280;16347;53.232;6.556;2023-01-29T07:02:21;102588.88;;;6.10;73.30
29359;BME280;16347;53.232;6.556;2023-01-29T07:04:49;102580.84;;;6.09;73.63
29359;BME280;16347;53.232;6.556;2023-01-29T07:07:17;102570.72;;;6.28;73.16
29359;BME280;16347;53.232;6.556;2023-01-29T07:09:45;102569.63;;;6.16;73.09
29359;BME280;16347;53.232;6.556;2023-01-29T07:12:13;102571.97;;;6.07;73.30
29359;BME280;16347;53.232;6.556;2023-01-29T07:14:41;102568.66;;;6.02;73.70
29359;BME280;16347;53.232;6.556;2023-01-29T07:17:09;102554.88;;;6.38;73.37
29359;BME280;16347;53.232;6.556;2023-01-29T07:19:39;102554.63;;;5.95;73.73
29359;BME280;16347;53.232;6.556;2023-01-29T07:22:07;102559.69;;;6.17;73.92
29359;BME280;16347;53.232;6.556;2023-01-29T07:24:35;102554.44;;;6.30;73.79
29359;BME280;16347;53.232;6.556;2023-01-29T07:27:03;102551.47;;;6.34;73.45
29359;BME280;16347;53.232;6.556;2023-01-29T07:29:32;102556.69;;;6.22;73.65
29359;BME280;16347;53.232;6.556;2023-01-29T07:32:00;102550.78;;;6.15;74.18
29359;BME280;16347;53.232;6.556;2023-01-29T07:34:28;102555.56;;;6.26;74.24
29359;BME280;16347;53.232;6.556;2023-01-29T07:36:58;102549.63;;;6.35;73.64
29359;BME280;16347;53.232;6.556;2023-01-29T07:39:26;102552.63;;;6.30;73.89
29359;BME280;16347;53.232;6.556;2023-01-29T07:41:55;102550.78;;;6.31;74.15
29359;BME280;16347;53.232;6.556;2023-01-29T07:44:25;102546.78;;;6.38;74.11
29359;BME280;16347;53.232;6.556;2023-01-29T07:46:53;102548.38;;;6.10;74.42
29359;BME280;16347;53.232;6.556;2023-01-29T07:49:22;102554.69;;;6.25;74.45
29359;BME280;16347;53.232;6.556;2023-01-29T07:51:50;102548.19;;;6.13;74.75
29359;BME280;16347;53.232;6.556;2023-01-29T07:54:20;102554.28;;;6.17;74.70
29359;BME280;16347;53.232;6.556;2023-01-29T07:56:48;102548.56;;;6.07;75.07
29359;BME280;16347;53.232;6.556;2023-01-29T07:59:16;102557.75;;;6.19;74.61
29359;BME280;16347;53.232;6.556;2023-01-29T08:01:44;102553.78;;;6.10;74.45
29359;BME280;16347;53.232;6.556;2023-01-29T08:04:12;102551.25;;;6.07;74.26
29359;BME280;16347;53.232;6.556;2023-01-29T08:06:41;102548.28;;;6.12;74.33
29359;BME280;16347;53.232;6.556;2023-01-29T08:09:09;102549.56;;;6.05;74.47
29359;BME280;16347;53.232;6.556;2023-01-29T08:11:39;102546.72;;;5.92;74.72
29359;BME280;16347;53.232;6.556;2023-01-29T08:14:07;102546.91;;;5.89;75.31
29359;BME280;16347;53.232;6.556;2023-01-29T08:16:36;102546.66;;;5.94;75.22
29359;BME280;16347;53.232;6.556;2023-01-29T08:19:04;102547.28;;;5.82;75.40
29359;BME280;16347;53.232;6.556;2023-01-29T08:21:32;102542.25;;;5.91;75.68
29359;BME280;16347;53.232;6.556;2023-01-29T08:24:01;102540.94;;;5.83;76.24
29359;BME280;16347;53.232;6.556;2023-01-29T08:26:29;102541.28;;;5.77;76.65
29359;BME280;16347;53.232;6.556;2023-01-29T08:28:59;102533.47;;;5.88;76.51
29359;BME280;16347;53.232;6.556;2023-01-29T08:31:27;102542.69;;;5.84;76.58
29359;BME280;16347;53.232;6.556;2023-01-29T08:33:55;102531.69;;;5.71;77.43
29359;BME280;16347;53.232;6.556;2023-01-29T08:36:24;102528.59;;;5.94;77.03
29359;BME280;16347;53.232;6.556;2023-01-29T08:38:52;102526.50;;;5.99;76.74
29359;BME280;16347;53.232;6.556;2023-01-29T08:41:20;102520.34;;;5.97;76.81
29359;BME280;16347;53.232;6.556;2023-01-29T08:43:49;102513.72;;;6.03;76.66
29359;BME280;16347;53.232;6.556;2023-01-29T08:46:18;102528.09;;;6.03;76.59
29359;BME280;16347;53.232;6.556;2023-01-29T08:48:47;102525.03;;;6.09;76.68
29359;BME280;16347;53.232;6.556;2023-01-29T08:51:15;102519.88;;;6.05;76.49
29359;BME280;16347;53.232;6.556;2023-01-29T08:53:43;102528.97;;;6.04;76.63
29359;BME280;16347;53.232;6.556;2023-01-29T08:56:11;102510.81;;;6.06;76.65
29359;BME280;16347;53.232;6.556;2023-01-29T08:58:39;102518.34;;;6.01;76.33
29359;BME280;16347;53.232;6.556;2023-01-29T09:01:08;102513.25;;;5.95;77.33
29359;BME280;16347;53.232;6.556;2023-01-29T09:03:38;102509.19;;;6.03;77.15
29359;BME280;16347;53.232;6.556;2023-01-29T09:06:10;102502.19;;;6.15;76.49
29359;BME280;16347;53.232;6.556;2023-01-29T09:08:39;102497.75;;;6.14;76.52
29359;BME280;16347;53.232;6.556;2023-01-29T09:11:07;102497.50;;;6.03;76.40
29359;BME280;16347;53.232;6.556;2023-01-29T09:13:36;102497.53;;;5.87;77.23
29359;BME280;16347;53.232;6.556;2023-01-29T09:16:05;102504.47;;;5.91;77.70
29359;BME280;16347;53.232;6.556;2023-01-29T09:18:33;102502.09;;;5.85;77.85
29359;BME280;16347;53.232;6.556;2023-01-29T09:21:03;102507.41;;;5.71;78.78
29359;BME280;16347;53.232;6.556;2023-01-29T09:23:32;102494.47;;;5.93;78.27
29359;BME280;16347;53.232;6.556;2023-01-29T09:26:00;102503.22;;;6.12;77.60
29359;BME280;16347;53.232;6.556;2023-01-29T09:28:29;102508.19;;;6.20;77.30
29359;BME280;16347;53.232;6.556;2023-01-29T09:31:00;102505.56;;;6.18;77.22
29359;BME280;16347;53.232;6.556;2023-01-29T09:33:29;102496.69;;;6.16;76.94
29359;BME280;16347;53.232;6.556;2023-01-29T09:35:58;102490.06;;;6.22;76.84
29359;BME280;16347;53.232;6.556;2023-01-29T09:38:27;102497.66;;;6.15;76.69
29359;BME280;16347;53.232;6.556;2023-01-29T09:41:01;102493.31;;;6.13;76.66
29359;BME280;16347;53.232;6.556;2023-01-29T09:43:40;102490.41;;;6.16;76.58
29359;BME280;16347;53.232;6.556;2023-01-29T09:46:16;102475.78;;;6.04;77.13
29359;BME280;16347;53.232;6.556;2023-01-29T09:48:45;102481.81;;;6.09;77.13
29359;BME280;16347;53.232;6.556;2023-01-29T09:51:23;102478.47;;;6.20;76.29
29359;BME280;16347;53.232;6.556;2023-01-29T09:53:59;102488.03;;;6.26;76.50
29359;BME280;16347;53.232;6.556;2023-01-29T09:56:33;102486.97;;;6.28;75.95
29359;BME280;16347;53.232;6.556;2023-01-29T09:59:02;102497.47;;;6.48;75.68
29359;BME280;16347;53.232;6.556;2023-01-29T10:01:35;102496.13;;;6.41;75.49
29359;BME280;16347;53.232;6.556;2023-01-29T10:04:22;102492.38;;;6.28;76.01
29359;BME280;16347;53.232;6.556;2023-01-29T10:07:02;102481.75;;;6.25;76.25
29359;BME280;16347;53.232;6.556;2023-01-29T10:09:56;102472.13;;;6.21;76.34
29359;BME280;16347;53.232;6.556;2023-01-29T10:12:41;102474.06;;;6.03;77.60
29359;BME280;16347;53.232;6.556;2023-01-29T10:15:24;102473.53;;;6.12;77.72
29359;BME280;16347;53.232;6.556;2023-01-29T10:18:11;102468.63;;;6.19;77.64
29359;BME280;16347;53.232;6.556;2023-01-29T10:20:56;102467.19;;;6.13;77.86
29359;BME280;16347;53.232;6.556;2023-01-29T10:23:33;102470.31;;;6.06;78.39
29359;BME280;16347;53.232;6.556;2023-01-29T10:26:07;102466.03;;;6.17;78.53
29359;BME280;16347;53.232;6.556;2023-01-29T10:28:41;102459.47;;;6.22;78.20
29359;BME280;16347;53.232;6.556;2023-01-29T10:31:15;102464.59;;;5.96;78.83
29359;BME280;16347;53.232;6.556;2023-01-29T10:33:48;102455.53;;;5.97;79.29
29359;BME280;16347;53.232;6.556;2023-01-29T10:36:34;102448.41;;;6.26;78.54
29359;BME280;16347;53.232;6.556;2023-01-29T10:39:04;102451.06;;;6.12;78.69
29359;BME280;16347;53.232;6.556;2023-01-29T10:41:53;102440.38;;;6.25;79.01
29359;BME280;16347;53.232;6.556;2023-01-29T10:44:31;102426.34;;;6.34;78.58
29359;BME280;16347;53.232;6.556;2023-01-29T10:47:15;102431.63;;;6.21;78.96
29359;BME280;16347;53.232;6.556;2023-01-29T10:52:56;102422.53;;;5.92;80.48
29359;BME280;16347;53.232;6.556;2023-01-29T10:55:42;102403.06;;;5.87;80.79
29359;BME280;16347;53.232;6.556;2023-01-29T10:58:22;102397.56;;;5.89;80.92
29359;BME280;16347;53.232;6.556;2023-01-29T11:00:53;102401.03;;;5.75;81.38
29359;BME280;16347;53.232;6.556;2023-01-29T11:03:23;102398.44;;;5.89;81.66
29359;BME280;16347;53.232;6.556;2023-01-29T11:06:00;102382.16;;;5.91;81.20
29359;BME280;16347;53.232;6.556;2023-01-29T11:08:33;102375.69;;;5.93;81.36
29359;BME280;16347;53.232;6.556;2023-01-29T11:11:06;102379.72;;;5.86;81.04
29359;BME280;16347;53.232;6.556;2023-01-29T11:13:41;102376.75;;;5.91;81.09
29359;BME280;16347;53.232;6.556;2023-01-29T11:16:09;102362.31;;;6.06;80.98
29359;BME280;16347;53.232;6.556;2023-01-29T11:18:53;102384.97;;;6.03;80.92
29359;BME280;16347;53.232;6.556;2023-01-29T11:21:22;102362.00;;;5.96;81.21
29359;BME280;16347;53.232;6.556;2023-01-29T11:24:05;102366.38;;;6.13;80.63
29359;BME280;16347;53.232;6.556;2023-01-29T11:26:37;102357.13;;;6.17;80.68
29359;BME280;16347;53.232;6.556;2023-01-29T11:29:28;102358.97;;;6.16;80.69
29359;BME280;16347;53.232;6.556;2023-01-29T11:31:58;102348.94;;;6.18;80.82
29359;BME280;16347;53.232;6.556;2023-01-29T11:34:28;102357.31;;;6.28;80.25
29359;BME280;16347;53.232;6.556;2023-01-29T11:36:59;102351.56;;;6.34;80.00
29359;BME280;16347;53.232;6.556;2023-01-29T11:39:30;102345.34;;;6.18;80.52
29359;BME280;16347;53.232;6.556;2023-01-29T11:42:00;102351.63;;;6.18;80.44
29359;BME280;16347;53.232;6.556;2023-01-29T11:44:33;102339.00;;;6.19;80.86
29359;BME280;16347;53.232;6.556;2023-01-29T11:47:17;102343.59;;;6.03;81.62
29359;BME280;16347;53.232;6.556;2023-01-29T11:49:47;102322.72;;;6.21;81.28
29359;BME280;16347;53.232;6.556;2023-01-29T11:52:18;102323.09;;;6.29;81.18
29359;BME280;16347;53.232;6.556;2023-01-29T11:54:50;102320.88;;;6.35;81.25
29359;BME280;16347;53.232;6.556;2023-01-29T11:57:29;102312.00;;;6.33;81.05
29359;BME280;16347;53.232;6.556;2023-01-29T12:00:02;102307.28;;;6.37;80.89
29359;BME280;16347;53.232;6.556;2023-01-29T12:02:37;102301.97;;;6.21;81.67
29359;BME280;16347;53.232;6.556;2023-01-29T12:05:14;102299.16;;;6.23;81.76
29359;BME280;16347;53.232;6.556;2023-01-29T12:07:44;102314.50;;;6.36;81.80
29359;BME280;16347;53.232;6.556;2023-01-29T12:10:32;102292.72;;;6.11;82.49
29359;BME280;16347;53.232;6.556;2023-01-29T12:13:06;102289.03;;;6.12;82.23
29359;BME280;16347;53.232;6.556;2023-01-29T12:15:47;102278.31;;;6.25;82.40
29359;BME280;16347;53.232;6.556;2023-01-29T12:18:21;102275.16;;;6.32;81.81
29359;BME280;16347;53.232;6.556;2023-01-29T12:20:55;102270.22;;;6.25;82.01
29359;BME280;16347;53.232;6.556;2023-01-29T12:23:31;102263.28;;;6.35;81.87
29359;BME280;16347;53.232;6.556;2023-01-29T12:26:05;102255.69;;;6.27;81.81
29359;BME280;16347;53.232;6.556;2023-01-29T12:28:38;102260.41;;;6.24;82.21
29359;BME280;16347;53.232;6.556;2023-01-29T12:31:18;102246.31;;;5.90;82.97
29359;BME280;16347;53.232;6.556;2023-01-29T12:33:52;102233.19;;;5.98;83.05
29359;BME280;16347;53.232;6.556;2023-01-29T12:36:27;102235.59;;;6.03;82.94
29359;BME280;16347;53.232;6.556;2023-01-29T12:38:58;102223.25;;;5.99;83.50
29359;BME280;16347;53.232;6.556;2023-01-29T12:41:35;102210.63;;;6.28;83.08
29359;BME280;16347;53.232;6.556;2023-01-29T12:44:10;102207.63;;;6.32;82.27
29359;BME280;16347;53.232;6.556;2023-01-29T12:46:42;102201.72;;;6.54;81.81
29359;BME280;16347;53.232;6.556;2023-01-29T12:49:16;102188.47;;;6.49;81.62
29359;BME280;16347;53.232;6.556;2023-01-29T12:51:52;102190.78;;;6.55;81.28
29359;BME280;16347;53.232;6.556;2023-01-29T12:54:30;102186.38;;;6.40;81.56
29359;BME280;16347;53.232;6.556;2023-01-29T12:57:02;102192.09;;;6.36;81.42
29359;BME280;16347;53.232;6.556;2023-01-29T12:59:39;102187.81;;;6.46;81.64
29359;BME280;16347;53.232;6.556;2023-01-29T13:02:19;102173.16;;;6.77;81.27
29359;BME280;16347;53.232;6.556;2023-01-29T13:04:56;102163.31;;;6.76;80.58
29359;BME280;16347;53.232;6.556;2023-01-29T13:07:31;102157.16;;;6.74;80.30
29359;BME280;16347;53.232;6.556;2023-01-29T13:10:06;102164.47;;;6.71;80.46
29359;BME280;16347;53.232;6.556;2023-01-29T13:12:39;102152.03;;;6.69;80.76
29359;BME280;16347;53.232;6.556;2023-01-29T13:15:20;102145.88;;;6.67;80.94
29359;BME280;16347;53.232;6.556;2023-01-29T13:17:54;102148.22;;;6.59;81.04
29359;BME280;16347;53.232;6.556;2023-01-29T13:20:26;102145.09;;;6.38;81.97
29359;BME280;16347;53.232;6.556;2023-01-29T13:23:00;102144.81;;;6.29;82.23
29359;BME280;16347;53.232;6.556;2023-01-29T13:25:30;102146.09;;;6.23;82.66
29359;BME280;16347;53.232;6.556;2023-01-29T13:27:59;102133.47;;;6.24;83.06
29359;BME280;16347;53.232;6.556;2023-01-29T13:30:29;102142.91;;;6.31;83.21
29359;BME280;16347;53.232;6.556;2023-01-29T13:33:01;102121.97;;;6.34;83.13
29359;BME280;16347;53.232;6.556;2023-01-29T13:35:39;102123.69;;;6.35;82.75